createdAt,value
2019-02-12T00:10:46.770Z,37.73
2019-02-12T00:16:10.083Z,22.40
2019-02-12T00:21:14.349Z,20.57
2019-02-12T00:26:37.564Z,22.03
2019-02-12T00:31:41.788Z,22.20
2019-02-12T00:37:05.091Z,16.27
2019-02-12T00:42:28.339Z,18.33
2019-02-12T00:47:39.921Z,21.27
2019-02-12T00:52:55.525Z,22.10
2019-02-12T00:57:59.762Z,16.20
2019-02-12T01:08:33.145Z,21.63
2019-02-12T01:13:37.391Z,22.87
2019-02-12T01:18:41.752Z,23.67
2019-02-12T01:23:45.979Z,18.30
2019-02-12T01:28:50.470Z,23.27
2019-02-12T01:39:23.701Z,21.20
2019-02-12T01:49:38.005Z,19.97
2019-02-12T01:54:53.528Z,15.93
2019-02-12T01:59:58.124Z,22.23
2019-02-12T02:05:21.723Z,18.90
2019-02-12T02:10:44.857Z,15.83
2019-02-12T02:15:49.449Z,18.50
2019-02-12T02:21:12.758Z,16.00
2019-02-12T02:26:17.002Z,21.33
2019-02-12T02:36:31.816Z,18.67
2019-02-12T02:41:55.115Z,24.30
2019-02-12T02:47:18.403Z,15.43
2019-02-12T02:52:22.628Z,12.90
2019-02-12T02:57:26.906Z,27.00
2019-02-12T03:07:41.225Z,20.60
2019-02-12T03:12:45.486Z,21.07
2019-02-12T03:17:49.726Z,16.47
2019-02-12T03:23:13.049Z,19.37
2019-02-12T03:28:17.282Z,17.97
2019-02-12T03:33:40.602Z,26.93
2019-02-12T03:38:45.095Z,25.10
2019-02-12T03:43:49.406Z,28.57
2019-02-12T03:48:53.584Z,16.57
2019-02-12T03:59:47.363Z,26.43
2019-02-12T04:10:20.234Z,16.33
2019-02-12T04:15:24.527Z,24.10
2019-02-12T04:20:28.759Z,23.03
2019-02-12T04:25:52.133Z,18.80
2019-02-12T04:30:56.370Z,23.00
2019-02-12T04:36:00.620Z,18.27
2019-02-12T04:41:04.910Z,26.70
2019-02-12T04:46:09.135Z,21.13
2019-02-12T04:51:13.474Z,28.13
2019-02-12T04:56:36.795Z,25.53
2019-02-12T05:01:41.097Z,26.80
2019-02-12T05:12:35.324Z,25.43
2019-02-12T05:17:39.622Z,29.57
2019-02-12T05:27:53.218Z,19.13
2019-02-12T05:32:57.471Z,22.47
2019-02-12T05:38:20.880Z,15.50
2019-02-12T05:43:25.113Z,27.73
2019-02-12T05:48:48.410Z,19.27
2019-02-12T05:53:52.660Z,20.23
2019-02-12T05:59:16.257Z,16.77
2019-02-12T06:19:49.512Z,29.80
2019-02-12T06:25:13.133Z,20.37
2019-02-12T06:30:17.369Z,22.60
2019-02-12T06:35:21.613Z,21.37
2019-02-12T06:40:44.826Z,20.00
2019-02-12T06:45:49.116Z,23.50
2019-02-12T06:50:53.366Z,20.13
2019-02-12T06:55:57.615Z,18.70
2019-02-12T07:01:21.301Z,27.70
2019-02-12T07:06:36.938Z,22.30
2019-02-12T07:12:30.240Z,22.67
2019-02-12T07:18:12.523Z,24.07
2019-02-12T07:23:51.598Z,20.67
2019-02-12T07:29:20.410Z,22.73
2019-02-12T07:34:51.198Z,23.00
2019-02-12T07:40:33.563Z,29.53
2019-02-12T07:46:15.885Z,23.70
2019-02-12T07:51:58.149Z,20.97
2019-02-12T07:57:40.751Z,20.73
2019-02-12T08:03:23.144Z,14.97
2019-02-12T08:08:55.892Z,20.67
2019-02-12T08:14:38.208Z,20.60
2019-02-12T08:20:22.232Z,21.20
2019-02-12T08:26:04.513Z,19.00
2019-02-12T08:31:46.912Z,21.00
2019-02-12T08:37:29.201Z,24.17
2019-02-12T08:43:11.746Z,18.50
2019-02-12T08:48:54.025Z,25.53
2019-02-12T08:54:36.314Z,22.17
2019-02-12T09:00:24.145Z,20.10
2019-02-12T09:06:06.423Z,20.00
2019-02-12T09:11:48.883Z,14.63
2019-02-12T09:17:31.213Z,28.30
2019-02-12T09:23:13.611Z,23.53
2019-02-12T09:28:39.647Z,19.63
2019-02-12T09:34:21.923Z,17.90
2019-02-12T09:40:04.276Z,16.80
2019-02-12T09:45:49.626Z,20.97
2019-02-12T09:51:32.056Z,16.90
2019-02-12T09:57:14.694Z,19.83
2019-02-12T10:08:52.985Z,18.77
2019-02-12T10:14:22.363Z,25.47
2019-02-12T10:26:02.600Z,18.37
2019-02-12T10:36:37.269Z,21.17
2019-02-12T10:41:41.889Z,16.03
2019-02-12T10:46:46.996Z,17.23
2019-02-12T10:52:31.057Z,15.33
2019-02-12T10:57:36.078Z,13.80
2019-02-12T11:02:40.323Z,12.23
2019-02-12T11:12:54.633Z,17.20
2019-02-12T11:17:58.897Z,17.67
2019-02-12T11:23:03.416Z,11.53
2019-02-12T11:28:07.689Z,17.53
2019-02-12T11:38:40.769Z,13.27
2019-02-12T11:43:45.097Z,11.90
2019-02-12T11:48:49.429Z,20.17
2019-02-12T11:54:13.066Z,16.47
2019-02-12T11:59:36.568Z,16.00
2019-02-12T12:04:40.934Z,13.13
2019-02-12T12:09:45.276Z,13.60
2019-02-12T12:15:08.774Z,16.37
2019-02-12T12:20:13.129Z,7.93
2019-02-12T12:25:17.433Z,17.07
2019-02-12T12:30:21.739Z,16.07
2019-02-12T12:35:45.052Z,14.20
2019-02-12T12:41:08.353Z,14.27
2019-02-12T12:46:12.618Z,12.60
2019-02-12T12:51:16.904Z,11.37
2019-02-12T12:56:21.165Z,14.20
2019-02-12T13:01:25.427Z,16.87
2019-02-12T13:16:49.146Z,9.50
2019-02-12T13:21:53.520Z,9.30
2019-02-12T13:37:55.499Z,11.83
2019-02-12T13:43:18.739Z,16.53
2019-02-12T13:48:42.043Z,10.07
2019-02-12T13:53:46.484Z,8.60
2019-02-12T13:58:51.091Z,8.03
2019-02-12T14:04:14.433Z,10.43
2019-02-12T14:14:47.752Z,13.53
2019-02-12T14:19:52.095Z,13.60
2019-02-12T14:25:07.702Z,11.97
2019-02-12T14:30:52.555Z,9.73
2019-02-12T14:35:56.859Z,12.73
2019-02-12T14:41:20.089Z,8.80
2019-02-12T14:46:24.385Z,8.47
2019-02-12T14:51:29.219Z,9.33
2019-02-12T14:56:33.933Z,12.10
2019-02-12T15:01:38.403Z,10.57
2019-02-12T15:06:42.661Z,8.50
2019-02-12T15:11:46.929Z,8.53
2019-02-12T15:16:51.329Z,7.20
2019-02-12T15:21:55.734Z,8.73
2019-02-12T15:27:00.027Z,11.60
2019-02-12T15:32:04.428Z,11.93
2019-02-12T15:37:08.829Z,12.67
2019-02-12T15:42:13.355Z,10.27
2019-02-12T15:47:17.789Z,15.27
2019-02-12T15:52:22.133Z,14.00
2019-02-12T15:57:27.164Z,10.90
2019-02-12T16:02:32.037Z,10.50
2019-02-12T16:07:38.486Z,12.10
2019-02-12T16:12:43.371Z,13.40
2019-02-12T16:17:47.606Z,23.13
2019-02-12T16:22:51.998Z,13.10
2019-02-12T16:27:56.459Z,34.27
2019-02-12T16:33:00.790Z,25.67
2019-02-12T16:38:05.377Z,15.10
2019-02-12T16:43:09.917Z,31.53
2019-02-12T16:48:14.483Z,21.10
2019-02-12T16:53:18.802Z,15.63
2019-02-12T16:58:23.074Z,22.13
2019-02-12T17:03:27.395Z,22.80
2019-02-12T17:08:31.623Z,24.17
2019-02-12T17:13:36.197Z,16.00
2019-02-12T17:18:40.442Z,12.47
2019-02-12T17:23:44.742Z,11.23
2019-02-12T17:28:49.135Z,13.43
2019-02-12T17:33:53.430Z,11.13
2019-02-12T17:38:57.723Z,10.03
2019-02-12T17:44:02.021Z,7.33
2019-02-12T18:02:55.690Z,17.43
2019-02-12T18:08:01.346Z,27.60
2019-02-12T18:13:06.605Z,22.60
2019-02-12T18:18:11.812Z,36.60
2019-02-12T18:23:17.021Z,44.63
2019-02-12T18:28:22.220Z,37.07
2019-02-12T18:33:38.839Z,27.80
2019-02-12T18:44:19.744Z,15.50
2019-02-12T18:49:44.538Z,21.10
2019-02-12T18:55:09.374Z,30.17
2019-02-12T19:06:14.420Z,21.73
2019-02-12T19:16:36.330Z,19.97
2019-02-12T19:21:41.554Z,23.87
2019-02-12T19:26:49.961Z,23.13
2019-02-12T19:42:32.873Z,24.70
2019-02-12T19:47:38.097Z,28.40
2019-02-12T19:52:43.307Z,18.93
2019-02-12T19:58:09.551Z,17.90
2019-02-12T20:08:32.387Z,23.20
2019-02-12T20:13:43.430Z,29.30
2019-02-12T20:19:00.399Z,22.13
2019-02-12T20:29:41.329Z,19.67
2019-02-12T20:34:46.847Z,22.53
2019-02-12T20:45:28.478Z,19.20
2019-02-12T20:50:33.891Z,22.23
2019-02-12T20:55:41.588Z,18.30
2019-02-12T21:00:46.778Z,27.63
2019-02-12T21:06:03.478Z,21.07
2019-02-12T21:11:09.064Z,18.90
2019-02-12T21:16:25.864Z,22.33
2019-02-12T21:27:40.759Z,17.67
2019-02-12T21:32:46.269Z,20.47
2019-02-12T21:38:04.352Z,24.13
2019-02-12T21:48:27.576Z,19.07
2019-02-12T21:59:03.030Z,40.63
2019-02-12T22:04:08.250Z,40.60
2019-02-12T22:09:13.473Z,44.47
2019-02-12T22:14:18.707Z,50.93
2019-02-12T22:19:24.024Z,49.10
2019-02-12T22:30:16.322Z,23.53
2019-02-12T22:35:22.176Z,19.50
2019-02-12T22:40:28.522Z,16.57
2019-02-12T22:45:34.149Z,20.00
2019-02-12T22:50:39.477Z,35.43
2019-02-12T22:56:03.723Z,34.60
2019-02-12T23:01:20.937Z,31.37
2019-02-12T23:06:27.335Z,24.17
2019-02-12T23:17:28.087Z,21.07
2019-02-12T23:22:55.591Z,22.77
2019-02-12T23:28:21.022Z,17.00
2019-02-12T23:34:08.036Z,24.07
2019-02-12T23:39:14.308Z,46.53
2019-02-12T23:44:21.535Z,26.03
2019-02-12T23:49:38.894Z,22.27
